Time;durP1;ratioP1;P1;durP2;ratioP2;P2;SDS_P1;SDS_P2;PMS_P1;PMS_P2;Temp;Humidity;BMP_temperature;BMP_pressure;BME280_temperature;BME280_humidity;BME280_pressure;Samples;Min_cycle;Max_cycle;Signal;HPM_P1;HPM_P2
2022/07/21 00:02:22;;;;;;;5.50;3.02;;;;;;;21.24;76.66;98454.94;1704139;82;28176;-84
2022/07/21 00:04:48;;;;;;;6.00;3.37;;;;;;;21.08;76.97;98459.80;1698519;82;28100;-84
2022/07/21 00:07:16;;;;;;;7.25;3.55;;;;;;;21.02;77.26;98456.50;1702073;82;28117;-83
2022/07/21 00:09:43;;;;;;;5.22;3.05;;;;;;;20.94;77.53;98459.20;1705373;82;28149;-83
2022/07/21 00:12:09;;;;;;;6.85;3.00;;;;;;;20.87;77.96;98462.22;1705723;82;28120;-83
2022/07/21 00:14:36;;;;;;;6.05;3.52;;;;;;;20.76;78.48;98455.94;1697672;82;28115;-83
2022/07/21 00:17:03;;;;;;;5.33;3.50;;;;;;;20.64;79.00;98460.78;1698034;82;28034;-83
2022/07/21 00:19:30;;;;;;;3.75;2.80;;;;;;;20.61;79.56;98461.13;1709665;82;28080;-84
2022/07/21 00:21:56;;;;;;;4.80;3.00;;;;;;;20.62;80.05;98461.97;1708454;82;28117;-83
2022/07/21 00:24:22;;;;;;;4.50;3.00;;;;;;;20.55;80.46;98460.97;1701662;82;28125;-84
2022/07/21 00:26:50;;;;;;;3.83;3.17;;;;;;;20.52;80.93;98466.12;1704449;82;28511;-84
2022/07/21 00:29:16;;;;;;;4.47;3.45;;;;;;;20.44;81.34;98465.65;1702737;82;28161;-84
2022/07/21 00:31:42;;;;;;;7.80;3.15;;;;;;;20.38;81.76;98465.48;1713348;82;28086;-84
2022/07/21 00:34:10;;;;;;;6.08;3.72;;;;;;;20.42;82.30;98469.46;1699735;82;28137;-84
2022/07/21 00:36:36;;;;;;;6.62;3.92;;;;;;;20.46;82.69;98465.45;1699172;82;28082;-84
2022/07/21 00:39:02;;;;;;;6.10;3.60;;;;;;;20.50;82.95;98467.30;1701084;82;28256;-84
2022/07/21 00:41:33;;;;;;;6.08;3.42;;;;;;;20.57;83.21;98466.44;1705772;82;27999;-84
2022/07/21 00:43:59;;;;;;;8.08;3.42;;;;;;;20.67;83.29;98467.61;1703859;82;28083;-84
2022/07/21 00:46:25;;;;;;;4.95;3.27;;;;;;;20.68;83.34;98462.09;1715944;82;28134;-83
2022/07/21 00:48:52;;;;;;;6.25;3.62;;;;;;;20.69;83.42;98465.09;1698179;84;28111;-85
2022/07/21 00:51:18;;;;;;;7.42;3.58;;;;;;;20.74;83.54;98460.58;1699338;82;28124;-85
2022/07/21 00:53:46;;;;;;;5.42;3.40;;;;;;;20.75;83.64;98461.75;1708121;82;28116;-85
2022/07/21 00:56:12;;;;;;;5.00;3.27;;;;;;;20.76;83.74;98461.25;1701247;82;28178;-85
2022/07/21 00:58:40;;;;;;;4.58;3.30;;;;;;;20.66;83.75;98460.13;1698195;82;28093;-85
2022/07/21 01:01:09;;;;;;;4.53;3.30;;;;;;;20.43;83.70;98467.97;1701078;82;28098;-85
2022/07/21 01:03:37;;;;;;;5.60;3.35;;;;;;;20.25;83.89;98463.30;1704706;82;28173;-85
2022/07/21 01:06:03;;;;;;;4.12;3.22;;;;;;;20.19;84.29;98458.64;1701238;82;28137;-85
2022/07/21 01:08:29;;;;;;;6.37;3.58;;;;;;;19.98;84.56;98452.52;1710293;82;28088;-85
2022/07/21 01:10:56;;;;;;;6.83;3.30;;;;;;;19.74;84.96;98450.35;1698037;82;28183;-85
2022/07/21 01:13:23;;;;;;;5.85;3.83;;;;;;;19.53;85.47;98448.97;1699851;82;28168;-85
2022/07/21 01:15:49;;;;;;;5.53;3.60;;;;;;;19.38;85.95;98449.25;1708614;82;28073;-85
2022/07/21 01:18:17;;;;;;;5.58;3.55;;;;;;;19.27;86.61;98444.24;1698915;82;28456;-85
2022/07/21 01:20:46;;;;;;;5.17;4.15;;;;;;;19.22;87.43;98449.20;1703422;82;28138;-85
2022/07/21 01:23:13;;;;;;;5.28;3.40;;;;;;;19.18;88.17;98445.22;1704246;82;28011;-84
2022/07/21 01:25:40;;;;;;;5.90;3.90;;;;;;;19.30;89.00;98444.42;1703867;82;28101;-85
2022/07/21 01:28:06;;;;;;;4.28;3.55;;;;;;;19.51;89.66;98446.16;1705042;82;28208;-85
2022/07/21 01:30:32;;;;;;;6.22;3.65;;;;;;;19.66;90.07;98448.51;1701424;82;28172;-85
2022/07/21 01:32:58;;;;;;;5.53;3.45;;;;;;;19.78;90.39;98452.52;1711290;81;28058;-84
2022/07/21 01:35:24;;;;;;;4.10;3.52;;;;;;;19.79;90.47;98448.03;1695779;82;28477;-84
2022/07/21 01:37:51;;;;;;;6.05;3.27;;;;;;;19.62;90.51;98453.33;1702718;82;28182;-84
2022/07/21 01:43:04;;;;;;;4.03;3.02;;;;;;;19.42;91.00;98442.61;1706071;82;28173;-85
2022/07/21 01:45:31;;;;;;;6.40;3.10;;;;;;;19.27;91.41;98432.80;1709511;82;28120;-85
2022/07/21 01:47:58;;;;;;;5.60;3.45;;;;;;;19.16;91.87;98429.94;1700464;82;28079;-84
2022/07/21 01:50:26;;;;;;;9.53;3.87;;;;;;;19.07;92.27;98436.22;1702584;82;28109;-84
2022/07/21 01:52:58;;;;;;;9.20;3.72;;;;;;;19.15;92.86;98423.80;1707609;82;28097;-84
2022/07/21 01:55:27;;;;;;;6.20;3.45;;;;;;;19.24;93.35;98424.67;1702579;82;28153;-84
2022/07/21 01:57:53;;;;;;;5.53;3.27;;;;;;;19.34;93.73;98426.69;1703150;82;28146;-84
2022/07/21 02:00:25;;;;;;;5.17;3.67;;;;;;;19.42;93.92;98430.67;1706085;82;28081;-84
2022/07/21 02:02:55;;;;;;;6.65;4.03;;;;;;;19.45;94.08;98426.41;1695133;82;28061;-85
2022/07/21 02:05:23;;;;;;;4.08;3.02;;;;;;;19.52;94.20;98422.61;1698161;83;28090;-84
2022/07/21 02:07:51;;;;;;;4.55;3.62;;;;;;;19.57;94.35;98429.09;1710583;82;28484;-85
2022/07/21 02:10:17;;;;;;;7.65;4.03;;;;;;;19.58;94.24;98429.92;1700082;82;28134;-86
2022/07/21 02:12:46;;;;;;;4.17;2.85;;;;;;;19.59;94.32;98425.76;1698022;82;28103;-86
2022/07/21 02:15:13;;;;;;;6.83;3.87;;;;;;;19.57;94.36;98426.44;1705954;82;43053;-85
2022/07/21 02:17:39;;;;;;;4.40;3.50;;;;;;;19.58;94.44;98424.62;1700900;82;28109;-85
2022/07/21 02:20:06;;;;;;;5.65;3.17;;;;;;;19.58;94.56;98436.04;1704409;82;43062;-85
2022/07/21 02:22:32;;;;;;;4.37;3.25;;;;;;;19.39;94.41;98437.64;1698581;83;28062;-85
2022/07/21 02:24:59;;;;;;;6.05;3.85;;;;;;;19.29;94.48;98436.96;1699545;82;28389;-85
2022/07/21 02:27:25;;;;;;;6.42;3.67;;;;;;;19.29;94.64;98436.96;1702363;82;28153;-84
2022/07/21 02:29:52;;;;;;;6.65;3.62;;;;;;;19.36;94.94;98435.83;1707757;82;28101;-85
2022/07/21 02:32:18;;;;;;;4.90;3.33;;;;;;;19.41;95.01;98437.00;1704226;82;28003;-84
2022/07/21 02:34:45;;;;;;;3.67;3.10;;;;;;;19.46;95.13;98436.05;1699140;82;28078;-85
2022/07/21 02:37:11;;;;;;;4.55;3.62;;;;;;;19.49;95.28;98438.36;1699371;82;28133;-85
2022/07/21 02:39:37;;;;;;;5.65;3.37;;;;;;;19.43;95.32;98442.12;1696068;83;28108;-85
2022/07/21 02:42:03;;;;;;;4.15;3.45;;;;;;;19.29;95.30;98438.78;1699917;82;28137;-85
2022/07/21 02:44:30;;;;;;;4.62;3.20;;;;;;;19.15;95.46;98431.77;1696623;83;28094;-85
2022/07/21 02:46:57;;;;;;;5.50;3.50;;;;;;;19.08;95.77;98436.56;1698543;83;28156;-86
2022/07/21 02:49:23;;;;;;;4.92;3.37;;;;;;;18.89;95.93;98434.16;1703867;82;28096;-86
2022/07/21 02:51:49;;;;;;;3.85;3.10;;;;;;;18.94;96.29;98430.03;1694721;83;28099;-85
2022/07/21 02:54:15;;;;;;;5.33;3.27;;;;;;;19.04;96.62;98431.22;1698194;82;28128;-84
2022/07/21 02:56:41;;;;;;;5.08;3.60;;;;;;;19.09;96.85;98424.44;1711565;82;28043;-84
2022/07/21 02:59:07;;;;;;;5.95;3.27;;;;;;;19.17;97.04;98421.00;1704140;82;43096;-84
2022/07/21 03:01:33;;;;;;;3.70;2.90;;;;;;;19.14;97.17;98425.31;1703668;82;28101;-84
2022/07/21 03:03:59;;;;;;;7.62;3.47;;;;;;;18.97;97.30;98419.61;1698012;82;28154;-85
2022/07/21 03:06:26;;;;;;;6.92;3.33;;;;;;;19.04;97.58;98413.98;1704273;82;28102;-84
2022/07/21 03:08:52;;;;;;;6.05;3.42;;;;;;;19.08;97.76;98415.34;1706089;82;28096;-84
2022/07/21 03:11:18;;;;;;;4.20;3.42;;;;;;;19.16;98.03;98416.67;1702700;82;28002;-84
2022/07/21 03:13:44;;;;;;;5.95;3.33;;;;;;;19.28;98.30;98426.01;1707271;81;28476;-84
2022/07/21 03:16:11;;;;;;;4.87;3.50;;;;;;;19.34;98.43;98421.38;1698090;82;28583;-84
2022/07/21 03:18:37;;;;;;;5.47;3.72;;;;;;;19.37;98.53;98419.72;1698057;82;28159;-84
2022/07/21 03:21:03;;;;;;;4.50;3.52;;;;;;;19.37;98.52;98420.20;1702602;82;28190;-84
2022/07/21 03:23:30;;;;;;;6.47;3.42;;;;;;;19.34;98.42;98424.03;1705773;82;28041;-84
2022/07/21 03:25:56;;;;;;;6.30;3.40;;;;;;;19.28;98.28;98422.02;1702741;82;28070;-84
2022/07/21 03:28:23;;;;;;;5.37;3.27;;;;;;;19.27;98.24;98426.16;1708008;82;28092;-84
2022/07/21 03:30:49;;;;;;;6.22;3.37;;;;;;;19.26;98.35;98419.19;1708864;82;28070;-84
2022/07/21 03:33:16;;;;;;;7.80;3.00;;;;;;;19.27;98.38;98425.66;1700547;82;28074;-84
2022/07/21 03:35:42;;;;;;;6.15;3.45;;;;;;;19.29;98.47;98419.71;1677940;84;28105;-84
2022/07/21 03:38:08;;;;;;;5.00;3.40;;;;;;;19.33;98.65;98427.67;1702233;82;28101;-84
2022/07/21 03:40:36;;;;;;;4.92;3.65;;;;;;;19.38;98.84;98429.34;1700970;84;28159;-83
2022/07/21 03:43:05;;;;;;;6.70;3.40;;;;;;;19.36;98.89;98435.33;1704702;82;28089;-85
2022/07/21 03:45:34;;;;;;;4.80;3.95;;;;;;;19.29;98.86;98439.61;1697735;84;28068;-83
2022/07/21 03:48:02;;;;;;;6.83;3.65;;;;;;;19.25;98.92;98432.14;1702600;82;28121;-83
2022/07/21 03:50:30;;;;;;;7.30;3.30;;;;;;;19.18;99.12;98426.16;1703461;82;28071;-83
2022/07/21 03:52:56;;;;;;;5.03;3.30;;;;;;;19.03;99.43;98434.89;1698284;84;28070;-84
2022/07/21 03:55:23;;;;;;;7.12;3.60;;;;;;;18.95;99.84;98442.31;1701279;82;28118;-84
2022/07/21 03:57:52;;;;;;;5.10;3.33;;;;;;;19.01;100.00;98446.14;1701528;84;28099;-84
2022/07/21 04:00:22;;;;;;;4.03;3.08;;;;;;;19.09;100.00;98444.87;1702993;82;28096;-84
2022/07/21 04:02:49;;;;;;;4.37;3.22;;;;;;;19.27;100.00;98442.08;1702269;82;28198;-84
2022/07/21 04:05:17;;;;;;;7.60;3.65;;;;;;;19.44;100.00;98439.80;1676452;82;28093;-84
2022/07/21 04:07:45;;;;;;;4.65;3.40;;;;;;;19.57;100.00;98442.37;1697632;82;28086;-83
2022/07/21 04:10:17;;;;;;;4.55;3.40;;;;;;;19.71;100.00;98440.05;1704941;82;28078;-84
2022/07/21 04:12:47;;;;;;;6.35;3.40;;;;;;;19.86;100.00;98441.88;1701495;82;28139;-84
2022/07/21 04:15:14;;;;;;;5.85;3.52;;;;;;;19.97;100.00;98444.20;1701750;82;28121;-83
2022/07/21 04:17:41;;;;;;;3.75;3.12;;;;;;;19.96;100.00;98448.38;1699615;82;28135;-84
2022/07/21 04:20:09;;;;;;;6.17;3.42;;;;;;;19.88;100.00;98453.67;1702373;83;28082;-84
2022/07/21 04:22:37;;;;;;;7.58;4.17;;;;;;;19.81;100.00;98453.50;1702511;82;28086;-84
2022/07/21 04:25:07;;;;;;;6.42;3.65;;;;;;;19.85;100.00;98450.03;1703257;84;28141;-84
2022/07/21 04:27:35;;;;;;;7.78;3.70;;;;;;;19.95;100.00;98455.52;1697719;82;28110;-84
2022/07/21 04:30:10;;;;;;;7.37;4.35;;;;;;;20.09;100.00;98455.33;1698177;84;28067;-84
2022/07/21 04:32:38;;;;;;;6.53;3.42;;;;;;;20.13;100.00;98454.52;1703244;82;28081;-84
2022/07/21 04:35:06;;;;;;;4.58;3.60;;;;;;;20.12;100.00;98452.86;1703020;82;28131;-83
2022/07/21 04:37:35;;;;;;;4.47;3.47;;;;;;;20.09;100.00;98451.84;1703165;82;28175;-84
2022/07/21 04:40:04;;;;;;;4.30;3.30;;;;;;;20.06;100.00;98451.70;1668701;83;28078;-84
2022/07/21 04:42:33;;;;;;;5.03;3.50;;;;;;;20.05;100.00;98452.19;1694564;83;28145;-84
2022/07/21 04:44:59;;;;;;;5.67;3.30;;;;;;;20.05;100.00;98454.84;1683799;83;28171;-84
2022/07/21 04:47:25;;;;;;;6.08;3.87;;;;;;;20.24;100.00;98456.31;1687401;83;28127;-84
2022/07/21 04:49:51;;;;;;;7.33;3.95;;;;;;;20.51;100.00;98462.32;1693822;83;28163;-84
2022/07/21 04:52:18;;;;;;;6.03;3.60;;;;;;;20.71;100.00;98454.28;1691627;83;28153;-84
2022/07/21 04:54:44;;;;;;;6.58;3.77;;;;;;;20.84;100.00;98450.57;1691372;83;28180;-85
2022/07/21 04:57:10;;;;;;;5.50;3.47;;;;;;;20.93;100.00;98447.40;1690686;83;28144;-83
2022/07/21 04:59:36;;;;;;;6.45;3.67;;;;;;;21.01;100.00;98445.52;1688239;83;28067;-82
2022/07/21 05:02:04;;;;;;;6.55;3.80;;;;;;;21.09;100.00;98452.16;1694737;83;28078;-83
2022/07/21 05:04:36;;;;;;;7.45;3.90;;;;;;;21.16;100.00;98448.34;1697442;83;28141;-84
2022/07/21 05:07:03;;;;;;;8.23;3.45;;;;;;;21.20;100.00;98443.82;1701188;83;28094;-84
2022/07/21 05:09:30;;;;;;;7.05;3.20;;;;;;;21.25;100.00;98441.96;1691590;83;28143;-82
2022/07/21 05:12:02;;;;;;;7.03;3.65;;;;;;;21.29;100.00;98441.44;1693940;83;28153;-83
2022/07/21 05:14:28;;;;;;;5.37;3.70;;;;;;;21.29;100.00;98435.28;1691709;83;28071;-84
2022/07/21 05:16:58;;;;;;;5.22;3.70;;;;;;;21.32;100.00;98437.61;1691664;83;28118;-85
2022/07/21 05:19:24;;;;;;;4.75;3.40;;;;;;;21.35;100.00;98444.40;1690990;84;28095;-83
2022/07/21 05:21:50;;;;;;;5.72;3.52;;;;;;;21.38;100.00;98446.73;1690553;83;28231;-83
2022/07/21 05:24:25;;;;;;;10.63;4.83;;;;;;;21.42;100.00;98444.87;1693661;83;28172;-83
2022/07/21 05:26:52;;;;;;;5.75;3.90;;;;;;;21.56;100.00;98453.92;1691076;83;28067;-83
2022/07/21 05:29:18;;;;;;;7.87;4.00;;;;;;;21.65;100.00;98454.22;1691612;83;43099;-84
2022/07/21 05:31:44;;;;;;;6.47;4.78;;;;;;;21.62;100.00;98447.39;1691827;83;28122;-84
2022/07/21 05:34:13;;;;;;;9.75;5.50;;;;;;;21.57;100.00;98454.26;1667014;83;35911;-84
2022/07/21 05:36:40;;;;;;;12.45;5.33;;;;;;;21.52;100.00;98453.45;1692805;83;28096;-84
2022/07/21 05:39:07;;;;;;;7.17;4.92;;;;;;;21.52;100.00;98463.28;1698637;80;28115;-84
2022/07/21 05:41:35;;;;;;;7.67;4.72;;;;;;;21.60;100.00;98457.92;1705872;82;28189;-84
2022/07/21 05:44:01;;;;;;;7.65;4.70;;;;;;;21.73;100.00;98470.63;1707108;82;28181;-84
2022/07/21 05:46:27;;;;;;;7.00;4.58;;;;;;;21.88;100.00;98465.69;1708990;82;28116;-87
2022/07/21 05:48:54;;;;;;;7.97;4.80;;;;;;;22.04;100.00;98475.42;1696918;82;28073;-85
2022/07/21 05:51:28;;;;;;;7.65;4.60;;;;;;;22.20;100.00;98477.98;1697815;82;28082;-85
2022/07/21 05:53:54;;;;;;;11.35;5.00;;;;;;;22.26;100.00;98474.58;1696791;82;28151;-84
2022/07/21 05:56:21;;;;;;;6.58;4.50;;;;;;;22.37;100.00;98479.98;1705487;82;28235;-83
2022/07/21 05:58:47;;;;;;;10.48;4.50;;;;;;;22.46;100.00;98483.75;1707749;82;28109;-84
2022/07/21 06:01:17;;;;;;;9.40;4.70;;;;;;;22.58;100.00;98480.14;1704798;82;28098;-84
2022/07/21 06:03:53;;;;;;;7.37;4.80;;;;;;;22.65;100.00;98487.72;1711449;82;28109;-84
2022/07/21 06:06:18;;;;;;;8.63;5.08;;;;;;;22.72;100.00;98483.35;1709152;82;28127;-84
2022/07/21 06:08:47;;;;;;;10.32;5.60;;;;;;;22.79;100.00;98489.63;1696768;82;28098;-86
2022/07/21 06:11:15;;;;;;;6.30;4.50;;;;;;;22.84;100.00;98488.56;1702065;82;28054;-85
2022/07/21 06:13:42;;;;;;;6.35;5.33;;;;;;;22.92;100.00;98481.78;1698408;82;28140;-85
2022/07/21 06:16:13;;;;;;;8.48;4.65;;;;;;;22.90;100.00;98481.16;1705333;82;28147;-84
2022/07/21 06:18:39;;;;;;;9.08;4.75;;;;;;;22.83;100.00;98480.23;1703097;81;28157;-84
2022/07/21 06:21:06;;;;;;;7.33;4.25;;;;;;;22.76;100.00;98481.97;1698656;82;28133;-84
2022/07/21 06:23:32;;;;;;;7.33;4.95;;;;;;;22.75;100.00;98487.48;1699438;82;28300;-85
2022/07/21 06:26:01;;;;;;;6.75;4.65;;;;;;;22.74;100.00;98490.67;1702750;82;28096;-85
2022/07/21 06:28:27;;;;;;;9.18;4.53;;;;;;;22.82;100.00;98489.24;1698941;82;28061;-84
2022/07/21 06:31:00;;;;;;;8.63;5.17;;;;;;;22.94;100.00;98490.95;1697154;82;28119;-84
2022/07/21 06:33:29;;;;;;;7.15;4.45;;;;;;;23.04;100.00;98496.01;1697327;82;28176;-84
2022/07/21 06:35:55;;;;;;;;;;;;;;;23.11;100.00;98496.43;1671359;83;28137;-86
2022/07/21 06:38:21;;;;;;;;;;;;;;;23.14;100.00;98496.05;1708207;82;26045;-86
2022/07/21 06:40:46;;;;;;;;;;;;;;;23.14;100.00;98496.05;1715247;82;20259;-87
2022/07/21 06:43:13;;;;;;;;;;;;;;;23.11;100.00;98500.94;1712504;82;20851;-86
2022/07/21 06:45:42;;;;;;;;;;;;;;;23.12;100.00;98495.42;1709369;82;24918;-87
2022/07/21 06:48:09;;;;;;;;;;;;;;;23.18;100.00;98496.53;1707619;82;20319;-86
2022/07/21 06:50:37;;;;;;;;;;;;;;;23.23;100.00;98485.61;1702573;82;26052;-86
2022/07/21 06:53:14;;;;;;;;;;;;;;;23.29;100.00;98490.72;1709470;82;24433;-88
2022/07/21 06:55:40;;;;;;;;;;;;;;;23.30;100.00;98484.33;1704288;82;20211;-87
2022/07/21 06:58:11;;;;;;;;;;;;;;;23.40;100.00;98496.91;1703091;82;25516;-86
2022/07/21 07:00:37;;;;;;;;;;;;;;;23.46;100.00;98500.18;1700991;82;21906;-87
2022/07/21 07:03:03;;;;;;;;;;;;;;;23.50;100.00;98494.80;1702653;82;25935;-86
2022/07/21 07:05:30;;;;;;;;;;;;;;;23.57;100.00;98494.36;1703276;82;20364;-87
2022/07/21 07:07:59;;;;;;;;;;;;;;;23.63;100.00;98496.78;1708987;82;20562;-86
2022/07/21 07:10:25;;;;;;;;;;;;;;;23.71;100.00;98490.00;1719215;82;24913;-86
2022/07/21 07:12:51;;;;;;;;;;;;;;;23.77;100.00;98490.59;1710766;81;21989;-86
2022/07/21 07:18:41;;;;;;;;;;;;;;;23.98;100.00;98493.77;1657949;81;24927;-86
2022/07/21 07:21:08;;;;;;;;;;;;;;;24.00;100.00;98491.75;1631062;85;20476;-86
2022/07/21 07:23:34;;;;;;;;;;;;;;;24.18;100.00;98495.64;1658895;83;25033;-85
2022/07/21 07:26:00;;;;;;;;;;;;;;;24.27;100.00;98492.34;1654515;84;21898;-85
2022/07/21 07:28:26;;;;;;;;;;;;;;;24.37;100.00;98492.01;1656635;84;21018;-85
2022/07/21 07:30:54;;;;;;;;;;;;;;;24.44;100.00;98486.18;1665182;84;24502;-86
2022/07/21 07:33:24;;;;;;;;;;;;;;;24.55;100.00;98486.98;1644907;85;20589;-86
2022/07/21 07:35:50;;;;;;;;;;;;;;;24.65;100.00;98488.01;1655244;84;24949;-86
2022/07/21 07:38:17;;;;;;;;;;;;;;;24.76;100.00;98488.81;1697401;82;21850;-86
2022/07/21 07:40:43;;;;;;;;;;;;;;;24.86;100.00;98484.75;1662203;84;26028;-86
2022/07/21 07:43:09;;;;;;;;;;;;;;;24.99;100.00;98485.36;1661579;84;24382;-86
2022/07/21 07:45:35;;;;;;;;;;;;;;;25.11;100.00;98478.42;1667461;84;20780;-87
2022/07/21 07:48:01;;;;;;;;;;;;;;;25.20;100.00;98483.13;1656798;84;24913;-87
2022/07/21 07:50:28;;;;;;;;;;;;;;;25.30;100.00;98481.73;1667118;83;20779;-87
2022/07/21 07:52:54;;;;;;;;;;;;;;;25.38;100.00;98477.52;1669969;84;26753;-88
2022/07/21 07:55:20;;;;;;;;;;;;;;;25.51;100.00;98476.75;1668753;84;20300;-88
2022/07/21 07:57:46;;;;;;;;;;;;;;;25.64;100.00;98484.05;1670972;84;20794;-88
2022/07/21 08:00:14;;;;;;;;;;;;;;;25.76;100.00;98481.07;1668737;84;20268;-88
2022/07/21 08:02:40;;;;;;;;;;;;;;;25.86;99.64;98480.16;1668855;85;21974;-87
2022/07/21 08:05:08;;;;;;;;;;;;;;;25.97;99.07;98483.59;1661626;84;21052;-88
2022/07/21 08:07:43;;;;;;;;;;;;;;;26.09;98.28;98485.98;1664342;85;25215;-87
2022/07/21 08:10:13;;;;;;;;;;;;;;;26.18;97.54;98490.11;1679994;84;20650;-87
2022/07/21 08:12:44;;;;;;;;;;;;;;;26.28;96.84;98495.64;1674331;84;24759;-86
2022/07/21 08:15:10;;;;;;;;;;;;;;;26.43;96.59;98497.60;1666559;84;22193;-91
2022/07/21 08:17:38;;;;;;;;;;;;;;;26.58;96.26;98495.52;1662695;85;26884;-86
2022/07/21 08:20:05;;;;;;;;;;;;;;;26.72;95.67;98496.36;1671114;83;24413;-87
2022/07/21 08:22:31;;;;;;;;;;;;;;;26.79;94.82;98489.92;1688560;83;20392;-86
2022/07/21 08:24:57;;;;;;;;;;;;;;;26.87;93.92;98482.17;1681358;84;20244;-87
2022/07/21 08:27:23;;;;;;;;;;;;;;;26.94;92.93;98484.37;1686684;83;22031;-86
2022/07/21 08:30:00;;;;;;;;;;;;;;;27.03;92.40;98487.95;1686653;83;21571;-87
2022/07/21 08:32:27;;;;;;;;;;;;;;;27.18;91.89;98480.16;1662004;84;20235;-86
2022/07/21 08:34:55;;;;;;;;;;;;;;;27.33;90.66;98476.70;1691101;83;20282;-86
2022/07/21 08:37:21;;;;;;;;;;;;;;;27.44;89.59;98478.70;1690230;84;24809;-87
2022/07/21 08:39:48;;;;;;;;;;;;;;;27.55;88.22;98479.41;1689414;84;21975;-87
2022/07/21 08:42:14;;;;;;;;;;;;;;;27.67;87.47;98482.25;1690215;84;25586;-86
2022/07/21 08:44:40;;;;;;;;;;;;;;;27.79;86.69;98483.22;1689980;83;24612;-86
2022/07/21 08:47:13;;;;;;;;;;;;;;;27.88;85.44;98484.61;1689033;84;20271;-86
2022/07/21 08:49:39;;;;;;;;;;;;;;;27.97;84.55;98482.50;1690651;83;24843;-86
2022/07/21 08:52:06;;;;;;;;;;;;;;;28.08;83.36;98485.84;1687731;84;21944;-86
2022/07/21 08:54:32;;;;;;;;;;;;;;;28.15;81.03;98489.33;1689360;83;26227;-90
2022/07/21 08:56:58;;;;;;;;;;;;;;;28.19;78.88;98488.70;1690703;83;24479;-90
2022/07/21 08:59:27;;;;;;;;;;;;;;;28.27;77.57;98488.41;1689167;83;20246;-90
2022/07/21 09:01:53;;;;;;;;;;;;;;;28.37;76.20;98479.04;1690990;83;24945;-87
2022/07/21 09:04:26;;;;;;;;;;;;;;;28.48;75.26;98477.78;1688357;84;20773;-87
2022/07/21 09:06:59;;;;;;;;;;;;;;;28.55;73.89;98474.52;1690698;84;26757;-90
2022/07/21 09:09:28;;;;;;;;;;;;;;;28.62;72.63;98474.45;1688396;83;25303;-90
2022/07/21 09:11:55;;;;;;;;;;;;;;;28.72;71.50;98468.03;1690461;84;20449;-86
2022/07/21 09:14:23;;;;;;;;;;;;;;;28.82;70.74;98466.20;1690053;83;24914;-90
2022/07/21 09:16:57;;;;;;;;;;;;;;;28.91;69.80;98462.98;1690398;83;22099;-86
2022/07/21 09:19:31;;;;;;;;;;;;;;;29.04;69.52;98462.86;1691328;83;26069;-87
2022/07/21 09:21:58;;;;;;;;;;;;;;;29.15;68.41;98456.41;1689134;83;25388;-87
2022/07/21 09:24:28;;;;;;;;;;;;;;;29.20;66.99;98454.69;1689669;83;20603;-87
2022/07/21 09:27:11;;;;;;;;;;;;;;;29.27;66.06;98448.70;1685413;84;24838;-86
2022/07/21 09:29:38;;;;;;;;;;;;;;;29.33;65.14;98450.53;1687520;83;22242;-86
2022/07/21 09:32:24;;;;;;;;;;;;;;;29.39;64.04;98450.14;1687723;84;26018;-87
2022/07/21 09:34:52;;;;;;;;;;;;;;;29.47;63.23;98450.64;1690394;84;24631;-86
2022/07/21 09:37:19;;;;;;;;;;;;;;;29.52;61.76;98450.78;1692524;83;20337;-86
2022/07/21 09:39:53;;;;;;;;;;;;;;;29.58;60.81;98448.22;1690148;84;24287;-90
2022/07/21 09:42:26;;;;;;;;;;;;;;;29.65;59.94;98451.66;1690940;83;22889;-90
2022/07/21 09:44:54;;;;;;;;;;;;;;;29.73;58.96;98441.91;1689556;83;26048;-86
2022/07/21 09:47:21;;;;;;;;;;;;;;;29.81;58.45;98443.74;1685913;83;24487;-86
2022/07/21 09:49:47;;;;;;;;;;;;;;;29.89;57.66;98446.66;1690813;83;20266;-89
2022/07/21 09:52:20;;;;;;;;;;;;;;;29.94;56.61;98450.86;1689243;84;24823;-86
2022/07/21 09:54:53;;;;;;;;;;;;;;;30.01;56.13;98451.56;1688005;84;22509;-87
2022/07/21 09:57:25;;;;;;;;;;;;;;;30.05;54.93;98450.07;1686830;84;25694;-89
2022/07/21 09:59:52;;;;;;;;;;;;;;;30.11;54.15;98446.41;1690616;84;25207;-85
2022/07/21 10:02:30;;;;;;;3.15;2.30;;;;;;;30.19;53.59;98443.92;1686162;83;20286;-86
2022/07/21 10:05:07;;;;;;;;;;;;;;;30.22;52.89;98450.22;1688174;83;28059;-86
2022/07/21 10:07:35;;;;;;;;;;;;;;;30.22;52.01;98441.56;1690172;83;22616;-86
2022/07/21 10:10:00;;;;;;;;;;;;;;;30.29;51.80;98456.31;1688314;84;25970;-87
2022/07/21 10:12:28;;;;;;;9.68;3.00;;;;;;;30.36;51.97;98450.28;1683937;84;28048;-90
2022/07/21 10:14:55;;;;;;;4.53;2.58;;;;;;;30.45;51.94;98454.28;1681992;84;28101;-90
2022/07/21 10:17:23;;;;;;;4.40;2.75;;;;;;;30.55;51.89;98444.30;1684914;83;28135;-87
2022/07/21 10:20:13;;;;;;;4.70;3.10;;;;;;;30.60;51.83;98448.46;1683029;83;28122;-86
2022/07/21 10:23:09;;;;;;;4.10;2.55;;;;;;;30.66;51.52;98446.14;1700784;84;28120;-86
2022/07/21 10:25:37;;;;;;;3.58;2.40;;;;;;;30.65;50.52;98443.17;1703188;82;28090;-86
2022/07/21 10:28:27;;;;;;;6.90;3.10;;;;;;;30.65;50.07;98441.30;1703126;82;28177;-86
2022/07/21 10:30:55;;;;;;;4.17;2.70;;;;;;;30.64;49.44;98436.12;1696720;84;28097;-88
2022/07/21 10:33:28;;;;;;;4.87;2.80;;;;;;;30.63;49.20;98445.27;1701945;83;28134;-89
2022/07/21 10:36:00;;;;;;;4.03;2.35;;;;;;;30.69;49.09;98440.28;1681806;84;28098;-86
2022/07/21 10:38:29;;;;;;;6.72;2.75;;;;;;;30.72;48.26;98437.09;1701297;84;28172;-86
2022/07/21 10:40:56;;;;;;;4.45;2.58;;;;;;;30.73;47.46;98436.05;1702985;82;28070;-86
2022/07/21 10:43:31;;;;;;;4.55;2.40;;;;;;;30.78;47.01;98438.86;1702331;82;28109;-87
2022/07/21 10:46:03;;;;;;;3.58;2.50;;;;;;;30.80;46.50;98438.63;1700513;82;28090;-86
2022/07/21 10:48:44;;;;;;;5.37;3.00;;;;;;;30.82;45.94;98441.93;1698604;82;28154;-86
2022/07/21 10:51:12;;;;;;;3.62;2.70;;;;;;;30.86;45.88;98445.80;1702475;82;28149;-86
2022/07/21 10:53:39;;;;;;;3.92;2.83;;;;;;;30.94;46.03;98442.72;1702471;84;28101;-86
2022/07/21 10:56:06;;;;;;;5.62;3.08;;;;;;;30.96;45.76;98436.55;1702145;82;28187;-86
2022/07/21 10:58:40;;;;;;;3.75;2.85;;;;;;;30.97;45.65;98436.33;1700401;84;28082;-85
2022/07/21 11:01:16;;;;;;;4.87;3.17;;;;;;;30.97;45.38;98432.80;1702036;82;28486;-86
2022/07/21 11:03:45;;;;;;;4.58;3.12;;;;;;;30.99;45.45;98432.83;1698404;84;28102;-86
2022/07/21 11:06:24;;;;;;;3.35;2.60;;;;;;;31.03;45.47;98423.77;1699349;84;28106;-86
2022/07/21 11:09:06;;;;;;;6.00;3.50;;;;;;;31.07;45.58;98426.28;1700923;82;28091;-90
2022/07/21 11:12:01;;;;;;;4.30;2.90;;;;;;;31.09;45.54;98422.81;1702880;82;28066;-87
2022/07/21 11:14:40;;;;;;;3.52;3.05;;;;;;;31.11;45.51;98418.80;1699528;82;28063;-86
2022/07/21 11:17:09;;;;;;;3.55;2.92;;;;;;;31.19;45.60;98420.84;1699626;84;28193;-86
2022/07/21 11:19:52;;;;;;;8.10;3.30;;;;;;;31.28;45.97;98417.52;1701115;82;28093;-85
2022/07/21 11:22:18;;;;;;;5.83;3.23;;;;;;;31.34;45.87;98417.09;1693371;83;43132;-88
2022/07/21 11:24:57;;;;;;;3.87;2.80;;;;;;;31.38;45.76;98412.83;1696168;83;28125;-90
2022/07/21 11:27:26;;;;;;;5.95;3.55;;;;;;;31.49;45.70;98411.44;1696515;82;28047;-86
2022/07/21 11:29:55;;;;;;;3.92;3.10;;;;;;;31.61;45.76;98411.42;1633871;86;28082;-83
2022/07/21 11:32:23;;;;;;;5.33;3.10;;;;;;;31.71;46.20;98411.59;1694759;84;28236;-83
2022/07/21 11:34:55;;;;;;;7.17;2.87;;;;;;;31.81;46.20;98419.89;1695404;82;28130;-85
2022/07/21 11:37:33;;;;;;;6.85;3.58;;;;;;;31.83;46.10;98415.07;1693754;84;28125;-87
2022/07/21 11:40:00;;;;;;;6.35;3.75;;;;;;;31.89;46.20;98405.16;1695991;83;28059;-86
2022/07/21 11:42:36;;;;;;;6.12;3.30;;;;;;;32.09;46.18;98404.66;1695776;84;28169;-89
2022/07/21 11:45:03;;;;;;;7.35;3.08;;;;;;;32.27;45.88;98401.74;1695778;84;28191;-88
2022/07/21 11:47:32;;;;;;;5.87;2.90;;;;;;;32.19;45.23;98396.19;1694647;84;28153;-90
2022/07/21 11:50:01;;;;;;;6.15;3.22;;;;;;;32.13;44.68;98394.47;1695747;82;28109;-90
2022/07/21 11:52:32;;;;;;;7.45;3.12;;;;;;;32.09;44.22;98393.83;1696410;82;28090;-87
2022/07/21 11:55:01;;;;;;;6.85;3.27;;;;;;;32.09;43.52;98393.83;1695727;84;28109;-88
2022/07/21 11:57:28;;;;;;;8.10;3.00;;;;;;;32.24;43.20;98381.38;1696136;82;28109;-89
2022/07/21 11:59:56;;;;;;;5.25;2.70;;;;;;;32.40;42.99;98380.53;1671442;84;28109;-90
2022/07/21 12:02:25;;;;;;;6.87;3.25;;;;;;;32.38;42.38;98376.45;1657721;84;28070;-86
2022/07/21 12:05:03;;;;;;;8.48;2.90;;;;;;;32.37;41.84;98380.22;1672285;84;28155;-86